Terminal Aerodrome Forecast
Issued by NWS

Home | Current Version | Previous Version | Text Only | Print | Product List | Glossary On
Versions: 1 2 3 4 5 6 7 8 9 10 11 12 13 14 15 16 17 18 19 20
000
FTUS43 KICT 211733
TAFCNU
TAF
KCNU 211733Z 2118/2218 12007KT 4SM -DZ VCSH SCT009 OVC011
     FM220000 17005KT 2SM BR SCT006 OVC009=

USA.gov is the U.S. government's official web portal to all federal, state and local government web resources and services.